createdAt,value
2023-04-21T00:02:00.803Z,78.35
2023-04-21T00:04:29.177Z,78.68
2023-04-21T00:06:57.222Z,78.18
2023-04-21T00:09:26.541Z,78.57
2023-04-21T00:11:54.662Z,78.62
2023-04-21T00:14:22.488Z,79.03
2023-04-21T00:16:52.607Z,78.90
2023-04-21T00:19:21.073Z,81.04
2023-04-21T00:21:49.208Z,81.40
2023-04-21T00:24:17.256Z,81.03
2023-04-21T00:26:47.057Z,82.33
2023-04-21T00:29:15.155Z,81.28
2023-04-21T00:31:43.100Z,80.72
2023-04-21T00:34:11.604Z,81.69
2023-04-21T00:36:39.447Z,81.19
2023-04-21T00:39:07.398Z,80.90
2023-04-21T00:41:36.238Z,80.22
2023-04-21T00:44:07.601Z,80.39
2023-04-21T00:46:36.043Z,80.93
2023-04-21T00:49:06.210Z,80.34
2023-04-21T00:51:34.944Z,81.10
2023-04-21T00:54:05.313Z,81.22
2023-04-21T00:56:34.881Z,81.16
2023-04-21T00:59:03.789Z,80.88
2023-04-21T01:01:34.329Z,81.08
2023-04-21T01:04:02.879Z,82.17
2023-04-21T01:06:32.322Z,83.32
2023-04-21T01:09:00.204Z,82.07
2023-04-21T01:11:28.120Z,82.27
2023-04-21T01:13:56.105Z,81.92
2023-04-21T01:16:24.825Z,82.03
2023-04-21T01:18:54.533Z,82.25
2023-04-21T01:21:23.800Z,81.65
2023-04-21T01:23:53.129Z,81.61
2023-04-21T01:26:21.675Z,82.01
2023-04-21T01:28:50.557Z,81.87
2023-04-21T01:31:18.570Z,81.86
2023-04-21T01:33:46.876Z,81.72
2023-04-21T01:36:14.812Z,81.89
2023-04-21T01:38:43.444Z,82.02
2023-04-21T01:41:13.019Z,82.50
2023-04-21T01:43:40.935Z,82.39
2023-04-21T01:46:09.121Z,82.42
2023-04-21T01:48:38.136Z,82.78
2023-04-21T01:51:06.231Z,83.30
2023-04-21T01:53:34.088Z,84.98
2023-04-21T01:56:01.959Z,85.92
2023-04-21T01:58:31.335Z,87.70
2023-04-21T02:00:59.365Z,86.26
2023-04-21T02:03:27.538Z,85.37
2023-04-21T02:05:55.480Z,85.35
2023-04-21T02:08:23.361Z,85.00
2023-04-21T02:10:51.193Z,85.06
2023-04-21T02:13:19.094Z,84.70
2023-04-21T02:15:48.462Z,84.64
2023-04-21T02:18:16.887Z,85.56
2023-04-21T02:20:44.972Z,85.18
2023-04-21T02:23:12.917Z,85.87
2023-04-21T02:25:40.789Z,86.53
2023-04-21T02:28:09.008Z,88.07
2023-04-21T02:30:37.082Z,89.79
2023-04-21T02:33:07.718Z,90.82
2023-04-21T02:35:35.738Z,89.79
2023-04-21T02:38:07.320Z,89.20
2023-04-21T02:40:35.332Z,88.92
2023-04-21T02:43:03.964Z,89.13
2023-04-21T02:45:32.190Z,88.49
2023-04-21T02:48:02.784Z,87.72
2023-04-21T02:50:32.116Z,87.00
2023-04-21T02:53:00.000Z,88.47
2023-04-21T02:55:27.809Z,87.76
2023-04-21T02:57:55.886Z,86.43
2023-04-21T03:00:23.974Z,86.15
2023-04-21T03:02:53.375Z,86.22
2023-04-21T03:05:21.728Z,85.71
2023-04-21T03:07:50.972Z,85.25
2023-04-21T03:10:19.546Z,86.79
2023-04-21T03:12:47.460Z,86.38
2023-04-21T03:15:16.942Z,85.65
2023-04-21T03:17:44.971Z,87.39
2023-04-21T03:20:13.433Z,86.00
2023-04-21T03:22:41.443Z,86.39
2023-04-21T03:25:11.999Z,86.07
2023-04-21T03:27:39.966Z,86.62
2023-04-21T03:30:09.212Z,87.04
2023-04-21T03:32:37.210Z,87.52
2023-04-21T03:35:08.346Z,88.75
2023-04-21T03:37:36.265Z,86.96
2023-04-21T03:40:07.261Z,87.03
2023-04-21T03:42:36.794Z,86.96
2023-04-21T03:45:04.916Z,87.69
2023-04-21T03:47:32.875Z,87.68
2023-04-21T03:50:00.996Z,87.64
2023-04-21T03:52:28.975Z,87.55
2023-04-21T03:54:56.783Z,87.29
2023-04-21T03:57:24.736Z,86.83
2023-04-21T03:59:54.036Z,86.14
2023-04-21T04:02:22.172Z,86.30
2023-04-21T04:04:50.632Z,86.96
2023-04-21T04:07:18.831Z,87.35
2023-04-21T04:09:46.767Z,87.59
2023-04-21T04:12:14.646Z,87.71
2023-04-21T04:14:45.528Z,87.30
2023-04-21T04:17:14.900Z,85.84
2023-04-21T04:19:42.917Z,87.18
2023-04-21T04:22:10.941Z,87.84
2023-04-21T04:24:38.869Z,88.00
2023-04-21T04:27:07.096Z,88.14
2023-04-21T04:29:34.988Z,88.99
2023-04-21T04:32:04.260Z,89.01
2023-04-21T04:34:37.533Z,88.64
2023-04-21T04:37:06.823Z,84.77
2023-04-21T04:39:34.785Z,80.43
2023-04-21T04:42:03.682Z,78.00
2023-04-21T04:44:31.972Z,80.99
2023-04-21T04:47:00.012Z,78.41
2023-04-21T04:49:28.141Z,76.75
2023-04-21T04:51:57.498Z,80.25
2023-04-21T04:54:25.869Z,81.98
2023-04-21T04:56:53.700Z,84.37
2023-04-21T04:59:21.592Z,85.62
2023-04-21T05:01:49.517Z,85.76
2023-04-21T05:04:17.806Z,86.16
2023-04-21T05:06:45.970Z,86.88
2023-04-21T05:09:15.850Z,86.89
2023-04-21T05:11:43.841Z,88.18
2023-04-21T05:14:11.715Z,87.93
2023-04-21T05:16:39.925Z,88.72
2023-04-21T05:19:07.802Z,88.83
2023-04-21T05:21:35.816Z,89.47
2023-04-21T05:24:03.809Z,90.89
2023-04-21T05:26:33.126Z,90.49
2023-04-21T05:29:01.017Z,91.20
2023-04-21T05:31:29.104Z,91.44
2023-04-21T05:33:57.029Z,89.05
2023-04-21T05:36:25.920Z,85.38
2023-04-21T05:38:55.068Z,84.08
2023-04-21T05:41:23.137Z,83.25
2023-04-21T05:43:52.423Z,81.55
2023-04-21T05:46:20.604Z,80.32
2023-04-21T05:48:48.775Z,79.06
2023-04-21T05:51:16.783Z,78.66
2023-04-21T05:53:46.122Z,79.31
2023-04-21T05:56:14.943Z,79.70
2023-04-21T05:58:42.896Z,78.88
2023-04-21T06:01:13.046Z,79.08
2023-04-21T06:03:41.100Z,78.17
2023-04-21T06:06:10.327Z,78.14
2023-04-21T06:08:38.344Z,77.53
2023-04-21T06:11:06.271Z,77.60
2023-04-21T06:13:35.064Z,77.60
2023-04-21T06:16:04.380Z,77.20
2023-04-21T06:18:33.629Z,76.94
2023-04-21T06:21:01.550Z,76.62
2023-04-21T06:23:29.469Z,77.18
2023-04-21T06:26:04.222Z,76.90
2023-04-21T06:28:32.696Z,75.89
2023-04-21T06:31:01.127Z,76.88
2023-04-21T06:33:29.822Z,75.87
2023-04-21T06:35:59.126Z,75.85
2023-04-21T06:38:27.059Z,76.51
2023-04-21T06:40:55.286Z,75.69
2023-04-21T06:43:23.179Z,74.93
2023-04-21T06:45:51.251Z,75.46
2023-04-21T06:48:19.149Z,75.29
2023-04-21T06:50:47.039Z,74.69
2023-04-21T06:53:18.096Z,73.86
2023-04-21T06:55:46.352Z,73.25
2023-04-21T06:58:14.278Z,73.75
2023-04-21T07:00:42.556Z,72.38
2023-04-21T07:03:11.027Z,72.76
2023-04-21T07:05:39.081Z,72.23
2023-04-21T07:08:07.026Z,71.81
2023-04-21T07:10:36.439Z,72.65
2023-04-21T07:13:10.496Z,72.43
2023-04-21T07:15:38.512Z,72.11
2023-04-21T07:18:06.618Z,71.19
2023-04-21T07:20:34.619Z,70.67
2023-04-21T07:23:02.543Z,69.94
2023-04-21T07:25:30.487Z,69.92
2023-04-21T07:27:59.866Z,69.44
2023-04-21T07:30:27.844Z,68.98
2023-04-21T07:32:56.093Z,69.59
2023-04-21T07:35:24.082Z,68.25
2023-04-21T07:37:51.972Z,68.57
2023-04-21T07:40:19.885Z,67.98
2023-04-21T07:42:47.891Z,68.63
2023-04-21T07:45:20.213Z,67.24
2023-04-21T07:47:48.307Z,67.35
2023-04-21T07:50:16.252Z,66.42
2023-04-21T07:52:46.214Z,65.97
2023-04-21T07:55:14.051Z,66.82
2023-04-21T07:57:41.922Z,66.82
2023-04-21T08:00:10.950Z,65.71
2023-04-21T08:02:40.443Z,64.26
2023-04-21T08:05:09.337Z,65.55
2023-04-21T08:07:37.569Z,65.27
2023-04-21T08:10:06.050Z,66.33
2023-04-21T08:12:34.090Z,65.59
2023-04-21T08:15:05.848Z,64.87
2023-04-21T08:17:34.000Z,66.30
2023-04-21T08:20:03.779Z,66.54
2023-04-21T08:22:31.713Z,66.04
2023-04-21T08:24:59.657Z,65.68
2023-04-21T08:27:27.608Z,65.07
2023-04-21T08:29:55.776Z,64.82
2023-04-21T08:32:24.664Z,63.80
2023-04-21T08:34:53.758Z,64.38
2023-04-21T08:37:23.679Z,63.53
2023-04-21T08:39:51.935Z,63.41
2023-04-21T08:42:19.909Z,62.81
2023-04-21T08:44:48.127Z,61.86
2023-04-21T08:47:16.655Z,62.26
2023-04-21T08:49:45.630Z,60.70
2023-04-21T08:52:14.112Z,60.72
2023-04-21T08:54:44.202Z,61.58
2023-04-21T08:57:15.647Z,61.30
2023-04-21T08:59:43.946Z,61.25
2023-04-21T09:02:15.133Z,60.88
2023-04-21T09:04:44.963Z,60.46
2023-04-21T09:07:13.814Z,60.84
2023-04-21T09:09:58.502Z,59.59
2023-04-21T09:12:26.763Z,59.62
2023-04-21T09:14:54.994Z,58.84
2023-04-21T09:17:28.745Z,58.19
2023-04-21T09:19:56.745Z,57.88
2023-04-21T09:22:29.293Z,57.78
2023-04-21T09:25:00.791Z,58.01
2023-04-21T09:27:29.801Z,57.40
2023-04-21T09:30:03.993Z,56.69
2023-04-21T09:32:38.414Z,57.23
2023-04-21T09:35:07.549Z,57.30
2023-04-21T09:37:35.510Z,57.38
2023-04-21T09:40:05.784Z,56.53
2023-04-21T09:42:39.134Z,58.21
2023-04-21T09:45:29.065Z,56.91
2023-04-21T09:48:00.545Z,56.94
2023-04-21T09:50:51.177Z,54.69
2023-04-21T09:53:20.684Z,57.61
2023-04-21T09:55:53.645Z,56.57
2023-04-21T09:58:25.236Z,55.86
2023-04-21T10:00:54.784Z,55.11
2023-04-21T10:03:28.337Z,55.17
2023-04-21T10:05:57.154Z,55.06
2023-04-21T10:08:25.114Z,55.42
2023-04-21T10:10:54.607Z,53.83
2023-04-21T10:13:23.577Z,55.52
2023-04-21T10:16:03.709Z,53.21
2023-04-21T10:18:31.899Z,53.98
2023-04-21T10:21:03.611Z,52.86
2023-04-21T10:23:33.580Z,53.49
2023-04-21T10:26:12.143Z,52.25
2023-04-21T10:28:48.354Z,52.00
2023-04-21T10:31:21.406Z,52.46
2023-04-21T10:34:18.603Z,52.62
2023-04-21T10:37:17.581Z,52.70
2023-04-21T10:39:54.872Z,52.93
2023-04-21T10:42:28.784Z,53.75
2023-04-21T10:45:17.660Z,52.64
2023-04-21T10:47:49.334Z,53.77
2023-04-21T10:50:23.259Z,53.42
2023-04-21T10:52:56.936Z,52.87
2023-04-21T10:55:29.182Z,52.40
2023-04-21T10:57:59.360Z,53.56
2023-04-21T11:00:27.386Z,53.64
2023-04-21T11:03:00.215Z,53.87
2023-04-21T11:05:34.574Z,53.43
2023-04-21T11:08:11.981Z,52.28
2023-04-21T11:10:47.181Z,51.95
2023-04-21T11:13:16.466Z,52.38
2023-04-21T11:15:57.512Z,51.38
2023-04-21T11:18:40.114Z,51.27
2023-04-21T11:21:09.809Z,52.08
2023-04-21T11:23:41.461Z,52.18
2023-04-21T11:26:09.684Z,52.23
2023-04-21T11:28:41.683Z,52.48
2023-04-21T11:31:09.802Z,51.98
2023-04-21T11:33:38.198Z,51.11
2023-04-21T11:36:07.524Z,51.22
2023-04-21T11:38:40.592Z,50.77
2023-04-21T11:41:09.529Z,50.32
2023-04-21T11:43:39.583Z,50.84
2023-04-21T11:46:29.110Z,50.54
2023-04-21T11:49:00.983Z,50.85
2023-04-21T11:51:34.307Z,50.84
2023-04-21T11:54:02.526Z,50.38
2023-04-21T11:56:30.535Z,51.40
2023-04-21T11:58:59.743Z,50.89
2023-04-21T12:01:28.183Z,51.17
2023-04-21T12:03:57.099Z,51.19
2023-04-21T12:06:27.120Z,50.70
2023-04-21T12:09:01.136Z,50.30
2023-04-21T12:11:29.736Z,50.18
2023-04-21T12:13:59.700Z,49.07
2023-04-21T12:16:28.510Z,49.62
2023-04-21T12:18:57.793Z,50.47
2023-04-21T12:21:29.050Z,49.50
2023-04-21T12:23:57.221Z,49.70
2023-04-21T12:26:25.420Z,49.72
2023-04-21T12:28:53.470Z,49.36
2023-04-21T12:31:23.052Z,49.20
2023-04-21T12:33:51.264Z,49.72
2023-04-21T12:36:19.262Z,50.05
2023-04-21T12:38:47.205Z,49.69
2023-04-21T12:41:15.143Z,49.41
2023-04-21T12:43:43.146Z,49.22
2023-04-21T12:46:11.146Z,48.60
2023-04-21T12:48:40.550Z,49.45
2023-04-21T12:51:08.554Z,48.90
2023-04-21T12:53:36.825Z,49.43
2023-04-21T12:56:05.751Z,48.79
2023-04-21T12:58:33.807Z,48.51
2023-04-21T13:01:01.749Z,49.48
2023-04-21T13:03:29.851Z,49.29
2023-04-21T13:05:59.712Z,49.63
2023-04-21T13:08:27.757Z,49.91
2023-04-21T13:10:55.935Z,49.93
2023-04-21T13:13:23.882Z,49.69
2023-04-21T13:15:51.847Z,48.95
2023-04-21T13:18:19.723Z,49.06
2023-04-21T13:20:47.666Z,49.36
2023-04-21T13:23:17.004Z,49.72
2023-04-21T13:25:45.820Z,49.03
2023-04-21T13:28:14.748Z,49.62
2023-04-21T13:30:42.872Z,48.17
2023-04-21T13:33:10.998Z,49.31
2023-04-21T13:35:39.054Z,49.01
2023-04-21T13:38:07.281Z,49.48
2023-04-21T13:40:36.708Z,48.93
2023-04-21T13:43:04.951Z,49.00
2023-04-21T13:45:32.961Z,49.02
2023-04-21T13:48:01.147Z,49.19
2023-04-21T13:50:29.302Z,48.98
2023-04-21T13:52:57.202Z,48.53
2023-04-21T13:55:25.210Z,49.24
2023-04-21T13:57:55.376Z,48.35
2023-04-21T14:00:23.579Z,48.63
2023-04-21T14:02:51.696Z,48.73
2023-04-21T14:05:20.404Z,48.19
2023-04-21T14:07:48.508Z,49.08
2023-04-21T14:10:16.504Z,48.53
2023-04-21T14:12:45.642Z,48.42
2023-04-21T14:15:15.136Z,48.79
2023-04-21T14:17:43.162Z,48.84
2023-04-21T14:20:12.791Z,48.45
2023-04-21T14:22:40.647Z,48.16
2023-04-21T14:25:09.246Z,48.07
2023-04-21T14:27:37.340Z,48.51
2023-04-21T14:30:06.143Z,47.73
2023-04-21T14:32:35.651Z,47.44
2023-04-21T14:35:04.933Z,46.89
2023-04-21T14:37:33.108Z,47.35
2023-04-21T14:40:01.685Z,46.71
2023-04-21T14:42:29.692Z,46.72
2023-04-21T14:44:57.735Z,46.40
2023-04-21T14:47:26.150Z,46.51
2023-04-21T14:49:56.012Z,47.31
2023-04-21T14:52:25.855Z,47.61
2023-04-21T14:54:54.081Z,47.46
2023-04-21T14:57:23.719Z,46.92
2023-04-21T14:59:52.543Z,45.64
2023-04-21T15:02:21.970Z,46.09
2023-04-21T15:04:50.806Z,46.38
2023-04-21T15:07:24.323Z,46.46
2023-04-21T15:09:53.516Z,46.33
2023-04-21T15:12:21.969Z,44.86
2023-04-21T15:14:49.853Z,45.72
2023-04-21T15:17:17.737Z,45.63
2023-04-21T15:19:45.663Z,45.46
2023-04-21T15:22:15.431Z,45.60
2023-04-21T15:24:44.782Z,44.91
2023-04-21T15:27:12.707Z,45.59
2023-04-21T15:29:41.014Z,44.61
2023-04-21T15:32:09.021Z,45.19
2023-04-21T15:34:37.291Z,45.24
2023-04-21T15:37:05.420Z,45.17
2023-04-21T15:39:33.403Z,45.53
2023-04-21T15:42:04.367Z,45.82
2023-04-21T15:44:34.010Z,46.09
2023-04-21T15:47:02.287Z,45.89
2023-04-21T15:49:30.739Z,45.80
2023-04-21T15:51:58.860Z,46.42
2023-04-21T15:54:26.732Z,46.26
2023-04-21T15:56:54.702Z,46.65
2023-04-21T15:59:25.890Z,46.90
2023-04-21T16:01:54.273Z,45.97
2023-04-21T16:04:22.555Z,46.27
2023-04-21T16:06:50.745Z,46.68
2023-04-21T16:09:21.120Z,46.39
2023-04-21T16:11:50.124Z,44.89
2023-04-21T16:14:18.922Z,46.96
2023-04-21T16:16:48.311Z,46.40
2023-04-21T16:19:16.671Z,46.83
2023-04-21T16:21:44.625Z,46.74
2023-04-21T16:24:12.715Z,47.01
2023-04-21T16:26:41.397Z,47.12
2023-04-21T16:29:09.368Z,47.25
2023-04-21T16:31:37.774Z,47.61
2023-04-21T16:34:07.229Z,47.75
2023-04-21T16:36:35.447Z,48.06
2023-04-21T16:39:03.334Z,47.93
2023-04-21T16:41:31.433Z,47.99
2023-04-21T16:43:59.455Z,48.21
2023-04-21T16:46:29.737Z,48.85
2023-04-21T16:48:57.817Z,49.15
2023-04-21T16:51:28.560Z,49.11
2023-04-21T16:53:56.738Z,48.89
2023-04-21T16:56:24.929Z,49.37
2023-04-21T16:58:53.136Z,49.97
2023-04-21T17:01:21.191Z,49.70
2023-04-21T17:03:49.316Z,49.65
2023-04-21T17:06:21.003Z,49.68
2023-04-21T17:08:50.507Z,49.75
2023-04-21T17:11:18.536Z,50.39
2023-04-21T17:13:46.373Z,50.53
2023-04-21T17:16:14.408Z,50.55
2023-04-21T17:18:42.447Z,50.18
2023-04-21T17:21:10.351Z,50.32
2023-04-21T17:23:38.284Z,50.31
2023-04-21T17:26:08.193Z,50.69
2023-04-21T17:28:37.067Z,50.50
2023-04-21T17:31:15.248Z,51.35
2023-04-21T17:33:44.509Z,52.13
2023-04-21T17:36:12.551Z,52.19
2023-04-21T17:38:42.647Z,52.55
2023-04-21T17:41:12.050Z,53.28
2023-04-21T17:43:40.050Z,54.34
2023-04-21T17:46:08.544Z,53.76
2023-04-21T17:48:36.581Z,54.58
2023-04-21T17:51:04.769Z,53.37
2023-04-21T17:53:32.727Z,53.82
2023-04-21T17:56:01.131Z,54.11
2023-04-21T17:58:30.605Z,55.30
2023-04-21T18:00:58.576Z,54.43
2023-04-21T18:03:27.475Z,54.63
2023-04-21T18:05:55.624Z,55.65
2023-04-21T18:08:23.694Z,56.04
2023-04-21T18:10:51.726Z,55.27
2023-04-21T18:13:19.656Z,55.55
2023-04-21T18:15:49.248Z,56.73
2023-04-21T18:18:17.237Z,57.25
2023-04-21T18:20:45.321Z,58.10
2023-04-21T18:23:13.300Z,58.88
2023-04-21T18:25:43.203Z,58.48
2023-04-21T18:28:12.799Z,58.01
2023-04-21T18:30:41.706Z,58.70
2023-04-21T18:33:11.530Z,58.51
2023-04-21T18:35:39.816Z,58.66
2023-04-21T18:38:10.525Z,59.09
2023-04-21T18:40:38.614Z,58.81
2023-04-21T18:43:07.270Z,58.69
2023-04-21T18:45:35.176Z,59.38
2023-04-21T18:48:03.362Z,58.96
2023-04-21T18:50:35.950Z,58.97
2023-04-21T18:53:05.232Z,59.51
2023-04-21T18:55:33.569Z,59.54
2023-04-21T18:58:01.462Z,59.37
2023-04-21T19:00:29.881Z,59.91
2023-04-21T19:02:58.110Z,60.29
2023-04-21T19:05:26.618Z,60.43
2023-04-21T19:07:56.990Z,60.89
2023-04-21T19:10:24.929Z,61.58
2023-04-21T19:12:52.878Z,62.60
2023-04-21T19:15:21.749Z,62.60
2023-04-21T19:20:26.369Z,63.10
2023-04-21T19:22:54.284Z,62.56
2023-04-21T19:25:22.278Z,62.71
2023-04-21T19:27:50.159Z,64.21
2023-04-21T19:30:18.096Z,64.31
2023-04-21T19:32:46.008Z,63.67
2023-04-21T19:35:14.176Z,64.71
2023-04-21T19:37:43.471Z,64.87
2023-04-21T19:40:11.914Z,64.67
2023-04-21T19:42:41.757Z,64.23
2023-04-21T19:45:13.134Z,65.73
2023-04-21T19:47:41.139Z,65.14
2023-04-21T19:50:10.915Z,66.30
2023-04-21T19:52:38.863Z,67.64
2023-04-21T19:55:08.964Z,67.95
2023-04-21T19:57:37.110Z,68.06
2023-04-21T20:00:08.559Z,68.84
2023-04-21T20:02:36.844Z,71.81
2023-04-21T20:05:07.419Z,72.41
2023-04-21T20:07:35.825Z,72.19
2023-04-21T20:10:04.184Z,71.87
2023-04-21T20:12:33.747Z,71.17
2023-04-21T20:15:02.239Z,72.40
2023-04-21T20:17:30.306Z,71.50
2023-04-21T20:19:58.935Z,72.37
2023-04-21T20:22:26.964Z,71.81
2023-04-21T20:24:57.941Z,71.83
2023-04-21T20:27:25.995Z,72.27
2023-04-21T20:29:55.445Z,72.89
2023-04-21T20:32:23.409Z,72.79
2023-04-21T20:34:51.844Z,73.65
2023-04-21T20:37:19.829Z,73.61
2023-04-21T20:39:47.816Z,75.27
2023-04-21T20:42:15.854Z,75.49
2023-04-21T20:44:43.781Z,76.12
2023-04-21T20:47:13.202Z,76.21
2023-04-21T20:49:42.516Z,76.14
2023-04-21T20:52:10.924Z,76.54
2023-04-21T20:54:38.908Z,76.03
2023-04-21T20:57:08.576Z,76.11
2023-04-21T20:59:36.849Z,75.95
2023-04-21T21:02:05.294Z,77.60
2023-04-21T21:04:34.823Z,78.91
2023-04-21T21:07:02.814Z,79.37
2023-04-21T21:09:31.730Z,79.59
2023-04-21T21:11:59.638Z,80.66
2023-04-21T21:14:27.516Z,80.87
2023-04-21T21:16:56.462Z,81.70
2023-04-21T21:19:24.560Z,80.84
2023-04-21T21:21:54.238Z,82.04
2023-04-21T21:24:22.148Z,81.37
2023-04-21T21:26:50.180Z,80.77
2023-04-21T21:29:18.062Z,80.67
2023-04-21T21:31:46.029Z,80.56
2023-04-21T21:34:13.905Z,79.95
2023-04-21T21:36:41.815Z,79.20
2023-04-21T21:39:11.529Z,79.45
2023-04-21T21:41:39.767Z,79.31
2023-04-21T21:44:07.782Z,80.59
2023-04-21T21:46:35.785Z,80.33
2023-04-21T21:49:03.830Z,79.44
2023-04-21T21:51:31.786Z,79.94
2023-04-21T21:54:02.119Z,80.59
2023-04-21T21:56:31.399Z,85.21
2023-04-21T21:58:59.559Z,81.45
2023-04-21T22:01:27.605Z,81.53
2023-04-21T22:03:55.601Z,81.79
2023-04-21T22:06:26.475Z,80.92
2023-04-21T22:08:54.338Z,80.74
2023-04-21T22:11:22.873Z,80.63
2023-04-21T22:13:52.547Z,80.47
2023-04-21T22:16:20.504Z,81.49
2023-04-21T22:18:48.503Z,82.14
2023-04-21T22:21:16.772Z,82.83
2023-04-21T22:23:45.135Z,82.99
2023-04-21T22:26:13.160Z,82.87
2023-04-21T22:28:41.788Z,82.90
2023-04-21T22:31:11.561Z,83.42
2023-04-21T22:33:39.576Z,83.80
2023-04-21T22:36:09.883Z,83.42
2023-04-21T22:38:38.388Z,83.23
2023-04-21T22:41:06.734Z,83.42
2023-04-21T22:43:34.630Z,83.17
2023-04-21T22:46:03.236Z,82.52
2023-04-21T22:48:32.950Z,83.10
2023-04-21T22:51:01.490Z,84.34
2023-04-21T22:53:29.531Z,84.65
2023-04-21T22:55:57.545Z,84.89
2023-04-21T22:58:26.089Z,85.17
2023-04-21T23:00:54.123Z,84.65
2023-04-21T23:03:23.400Z,85.18
2023-04-21T23:05:53.084Z,85.55
2023-04-21T23:08:21.062Z,86.19
2023-04-21T23:10:49.041Z,86.38
2023-04-21T23:13:16.914Z,86.05
2023-04-21T23:15:44.818Z,86.67
2023-04-21T23:18:15.198Z,86.90
2023-04-21T23:20:42.867Z,94.15
2023-04-21T23:23:12.223Z,90.33
2023-04-21T23:25:40.084Z,91.29
2023-04-21T23:28:08.115Z,90.75
2023-04-21T23:30:36.167Z,90.72
2023-04-21T23:33:04.265Z,89.47
2023-04-21T23:35:32.209Z,89.89
2023-04-21T23:38:00.149Z,89.01
2023-04-21T23:40:29.481Z,89.28
2023-04-21T23:42:57.354Z,88.87
2023-04-21T23:45:25.245Z,89.01
2023-04-21T23:47:53.176Z,89.86
2023-04-21T23:50:21.139Z,90.36
2023-04-21T23:52:49.149Z,91.95
2023-04-21T23:55:17.237Z,92.97
2023-04-21T23:57:47.123Z,92.19
